Time;durP1;ratioP1;P1;durP2;ratioP2;P2;SDS_P1;SDS_P2;PMS_P1;PMS_P2;Temp;Humidity;BMP_temperature;BMP_pressure;BME280_temperature;BME280_humidity;BME280_pressure;Samples;Min_cycle;Max_cycle;Signal;HPM_P1;HPM_P2
2022/06/17 00:00:42;;;;;;;3.93;3.37;;;13.90;67.50;;;;;;4179365;28;20180;-70
2022/06/17 00:02:42;;;;;;;4.37;3.37;;;13.90;66.30;;;;;;4178386;28;20184;-70
2022/06/17 00:04:43;;;;;;;3.97;3.30;;;13.80;66.60;;;;;;4178984;28;20188;-70
2022/06/17 00:06:55;;;;;;;4.20;3.47;;;13.80;66.50;;;;;;4178866;28;20187;-70
2022/06/17 00:08:56;;;;;;;3.77;3.47;;;13.80;66.50;;;;;;4179259;28;20203;-70
2022/06/17 00:10:57;;;;;;;3.63;2.90;;;13.70;65.90;;;;;;4179387;28;20227;-70
2022/06/17 00:12:58;;;;;;;4.07;3.53;;;13.60;64.80;;;;;;4178921;28;20231;-70
2022/06/17 00:15:13;;;;;;;3.57;3.27;;;13.60;66.20;;;;;;4179103;28;20707;-70
2022/06/17 00:17:14;;;;;;;3.40;3.00;;;13.60;67.30;;;;;;4178666;28;20230;-70
2022/06/17 00:19:18;;;;;;;3.47;3.00;;;13.60;67.30;;;;;;4179231;28;20192;-70
2022/06/17 00:21:24;;;;;;;3.60;3.30;;;13.70;66.70;;;;;;4178892;28;20283;-70
2022/06/17 00:23:24;;;;;;;3.73;3.20;;;13.60;66.90;;;;;;4177725;28;20199;-70
2022/06/17 00:25:27;;;;;;;3.50;2.87;;;13.60;67.10;;;;;;4178342;28;20261;-71
2022/06/17 00:27:27;;;;;;;5.87;3.50;;;13.60;66.50;;;;;;4178766;28;20565;-70
2022/06/17 00:29:29;;;;;;;4.57;3.60;;;13.50;66.30;;;;;;4178819;28;20176;-70
2022/06/17 00:31:30;;;;;;;5.43;3.40;;;13.50;66.70;;;;;;4178911;28;20671;-70
2022/06/17 00:33:30;;;;;;;3.60;3.30;;;13.50;67.00;;;;;;4178712;28;20208;-71
2022/06/17 00:35:38;;;;;;;3.80;3.20;;;13.50;67.50;;;;;;4178188;28;20196;-71
2022/06/17 00:37:41;;;;;;;5.23;3.23;;;13.50;69.10;;;;;;4178748;28;20173;-70
2022/06/17 00:39:42;;;;;;;3.50;3.20;;;13.40;67.80;;;;;;4178720;28;20600;-71
2022/06/17 00:41:46;;;;;;;4.27;3.43;;;13.40;67.80;;;;;;4178845;28;20168;-71
2022/06/17 00:43:47;;;;;;;3.47;3.17;;;13.40;67.90;;;;;;4178613;28;20184;-71
2022/06/17 00:45:55;;;;;;;3.80;3.40;;;13.40;68.00;;;;;;4178299;28;20200;-70
2022/06/17 00:48:04;;;;;;;3.43;3.10;;;13.30;67.70;;;;;;4179045;28;20190;-70
2022/06/17 00:50:05;;;;;;;3.43;3.13;;;13.30;67.60;;;;;;4178746;28;20192;-70
2022/06/17 00:52:15;;;;;;;3.63;3.33;;;13.20;67.90;;;;;;4178720;28;20180;-71
2022/06/17 00:54:24;;;;;;;3.80;3.33;;;13.20;68.10;;;;;;4178769;28;20246;-70
2022/06/17 00:56:32;;;;;;;2.93;2.73;;;13.10;68.60;;;;;;4178122;28;20270;-70
2022/06/17 00:58:58;;;;;;;7.80;3.50;;;13.10;68.50;;;;;;4178628;28;20217;-71
2022/06/17 01:01:02;;;;;;;3.47;2.90;;;13.00;68.10;;;;;;4178632;28;20237;-70
2022/06/17 01:03:08;;;;;;;3.43;2.90;;;12.90;68.00;;;;;;4178609;28;20169;-71
2022/06/17 01:05:10;;;;;;;3.07;2.87;;;13.00;68.10;;;;;;4178278;28;20192;-71
2022/06/17 01:07:17;;;;;;;5.13;3.03;;;12.90;67.80;;;;;;4169647;28;20176;-71
2022/06/17 01:11:47;;;;;;;3.67;2.77;;;12.90;67.50;;;;;;4162342;28;20188;-70
2022/06/17 01:13:49;;;;;;;3.20;2.90;;;12.90;67.50;;;;;;4162510;28;20244;-71
2022/06/17 01:15:50;;;;;;;2.80;2.60;;;12.80;68.10;;;;;;4164859;28;20751;-71
2022/06/17 01:17:52;;;;;;;4.03;2.77;;;12.80;67.80;;;;;;4165066;28;20169;-71
2022/06/17 01:19:57;;;;;;;3.90;2.63;;;12.80;68.20;;;;;;4165253;28;20178;-71
2022/06/17 01:22:16;;;;;;;3.97;2.83;;;12.70;68.00;;;;;;4165247;28;20204;-71
2022/06/17 01:24:18;;;;;;;2.97;2.77;;;12.70;68.50;;;;;;4165060;28;20264;-71
2022/06/17 01:26:19;;;;;;;3.93;2.80;;;12.70;68.80;;;;;;4165404;28;20690;-71
2022/06/17 01:28:19;;;;;;;3.03;2.70;;;12.60;69.00;;;;;;4181384;28;20188;-71
2022/06/17 01:30:24;;;;;;;3.10;2.80;;;12.60;68.90;;;;;;4180365;28;20580;-71
2022/06/17 01:32:29;;;;;;;3.77;3.47;;;12.60;69.40;;;;;;4181661;28;20666;-71
2022/06/17 01:34:30;;;;;;;3.00;2.73;;;12.60;70.00;;;;;;4180032;28;20211;-71
2022/06/17 01:36:30;;;;;;;2.60;2.40;;;12.60;69.40;;;;;;4180862;28;20693;-71
2022/06/17 01:38:33;;;;;;;2.83;2.63;;;12.60;68.90;;;;;;4181666;28;20172;-71
2022/06/17 01:40:34;;;;;;;2.77;2.53;;;12.60;69.30;;;;;;4181693;28;20181;-71
2022/06/17 01:42:37;;;;;;;3.00;2.80;;;12.60;68.30;;;;;;4181561;28;20176;-71
2022/06/17 01:44:40;;;;;;;3.43;2.97;;;12.60;69.40;;;;;;4182580;28;20692;-71
2022/06/17 01:46:43;;;;;;;2.87;2.57;;;12.60;70.10;;;;;;4181226;28;20183;-71
2022/06/17 01:49:11;;;;;;;2.80;2.60;;;12.60;69.60;;;;;;4181412;28;20705;-71
2022/06/17 01:51:14;;;;;;;3.70;2.60;;;12.60;70.40;;;;;;4180986;28;20196;-71
2022/06/17 01:53:19;;;;;;;2.97;2.73;;;12.50;70.90;;;;;;4181455;28;20206;-71
2022/06/17 01:55:29;;;;;;;3.33;2.97;;;12.50;71.10;;;;;;4180531;28;20200;-71
2022/06/17 01:57:35;;;;;;;3.33;3.03;;;12.40;71.70;;;;;;4181129;28;20199;-71
2022/06/17 01:59:58;;;;;;;2.80;2.60;;;12.40;71.30;;;;;;4181066;28;20226;-71
2022/06/17 02:02:01;;;;;;;2.90;2.43;;;12.40;70.50;;;;;;4181269;28;20259;-71
2022/06/17 02:04:09;;;;;;;2.73;2.53;;;12.40;69.70;;;;;;4179743;28;20629;-71
2022/06/17 02:06:16;;;;;;;3.03;2.73;;;12.30;70.30;;;;;;4181849;28;20191;-71
2022/06/17 02:08:17;;;;;;;2.57;2.37;;;12.30;70.90;;;;;;4182958;28;20233;-71
2022/06/17 02:10:22;;;;;;;2.50;2.30;;;12.20;70.40;;;;;;4181408;28;20723;-71
2022/06/17 02:12:24;;;;;;;3.83;2.40;;;12.20;70.40;;;;;;4172779;28;20192;-71
2022/06/17 02:14:25;;;;;;;2.90;2.70;;;12.20;70.50;;;;;;4179539;28;20214;-71
2022/06/17 02:16:26;;;;;;;2.67;2.47;;;12.20;70.20;;;;;;4180144;28;20223;-70
2022/06/17 02:18:27;;;;;;;2.70;2.30;;;12.20;69.70;;;;;;4180717;28;20181;-71
2022/06/17 02:20:27;;;;;;;3.63;2.47;;;12.20;69.90;;;;;;4180557;28;20196;-71
2022/06/17 02:22:32;;;;;;;2.80;2.60;;;12.20;70.50;;;;;;4179386;28;20192;-71
2022/06/17 02:24:33;;;;;;;2.63;2.43;;;12.20;70.60;;;;;;4180674;28;20200;-71
2022/06/17 02:26:36;;;;;;;3.60;2.40;;;12.10;70.80;;;;;;4179072;28;20212;-71
2022/06/17 02:28:38;;;;;;;3.50;2.83;;;12.10;71.50;;;;;;4179042;28;20204;-71
2022/06/17 02:30:41;;;;;;;3.33;3.03;;;12.00;72.10;;;;;;4180526;28;20279;-71
2022/06/17 02:32:43;;;;;;;3.20;2.50;;;12.00;72.80;;;;;;4180281;28;20195;-71
2022/06/17 02:35:12;;;;;;;2.83;2.63;;;11.90;73.20;;;;;;4180350;28;20223;-71
2022/06/17 02:37:16;;;;;;;3.17;2.87;;;11.80;73.30;;;;;;4172005;28;20192;-71
2022/06/17 02:39:17;;;;;;;2.87;2.67;;;11.80;72.90;;;;;;4180658;28;20258;-71
2022/06/17 02:41:19;;;;;;;4.40;2.93;;;11.80;72.60;;;;;;4180424;28;20274;-71
2022/06/17 02:43:23;;;;;;;3.67;2.40;;;11.80;72.60;;;;;;4180380;28;20267;-71
2022/06/17 02:45:26;;;;;;;3.47;2.50;;;11.90;71.30;;;;;;4179801;28;20204;-71
2022/06/17 02:47:28;;;;;;;3.00;2.70;;;11.90;71.20;;;;;;4180434;28;20180;-71
2022/06/17 02:49:32;;;;;;;2.90;2.40;;;11.80;71.30;;;;;;4180272;28;20183;-71
2022/06/17 02:51:37;;;;;;;3.97;3.00;;;11.80;71.10;;;;;;4180287;28;20237;-71
2022/06/17 02:53:39;;;;;;;3.17;2.50;;;11.80;71.10;;;;;;4180200;28;20250;-71
2022/06/17 02:55:41;;;;;;;3.70;2.67;;;11.80;71.60;;;;;;4179676;28;20536;-71
2022/06/17 02:57:46;;;;;;;2.90;2.70;;;11.80;72.20;;;;;;4180199;28;20172;-71
2022/06/17 02:59:51;;;;;;;3.00;2.70;;;11.70;72.60;;;;;;4180103;28;20183;-71
2022/06/17 03:01:59;;;;;;;2.83;2.63;;;11.70;73.10;;;;;;4180230;28;20172;-71
2022/06/17 03:04:01;;;;;;;2.93;2.70;;;11.70;72.90;;;;;;4180168;28;20184;-71
2022/06/17 03:06:02;;;;;;;4.53;2.67;;;11.70;72.80;;;;;;4179555;28;20226;-71
2022/06/17 03:08:34;;;;;;;4.13;2.77;;;11.70;72.60;;;;;;4180103;28;20679;-71
2022/06/17 03:10:41;;;;;;;2.73;2.50;;;11.70;71.80;;;;;;4176535;28;20184;-71
2022/06/17 03:12:44;;;;;;;3.13;2.83;;;11.80;71.60;;;;;;4163695;28;20204;-71
2022/06/17 03:14:47;;;;;;;3.00;2.43;;;11.90;70.50;;;;;;4163128;28;20220;-71
2022/06/17 03:16:55;;;;;;;3.07;2.40;;;12.00;70.60;;;;;;4163319;28;20176;-71
2022/06/17 03:18:55;;;;;;;2.20;1.90;;;12.10;70.50;;;;;;4163571;28;20267;-71
2022/06/17 03:20:58;;;;;;;3.23;2.50;;;12.00;70.10;;;;;;4163334;28;20251;-71
2022/06/17 03:23:06;;;;;;;2.77;2.37;;;12.00;70.80;;;;;;4163583;28;20547;-71
2022/06/17 03:25:22;;;;;;;2.87;2.63;;;12.00;70.90;;;;;;4163207;28;20698;-71
2022/06/17 03:27:48;;;;;;;3.23;2.93;;;12.00;70.30;;;;;;4163102;28;20267;-71
2022/06/17 03:29:50;;;;;;;2.97;2.67;;;12.00;70.80;;;;;;4179279;28;20190;-71
2022/06/17 03:32:13;;;;;;;2.57;2.37;;;12.00;71.10;;;;;;4179857;28;20727;-71
2022/06/17 03:34:24;;;;;;;3.33;2.50;;;11.90;71.30;;;;;;4179903;28;20273;-71
2022/06/17 03:36:31;;;;;;;3.43;2.60;;;11.90;71.60;;;;;;4179237;28;20196;-71
2022/06/17 03:38:47;;;;;;;3.70;2.60;;;12.00;71.80;;;;;;4179772;28;20173;-71
2022/06/17 03:40:53;;;;;;;3.00;2.80;;;12.00;72.30;;;;;;4179724;28;20172;-71
2022/06/17 03:43:08;;;;;;;2.97;2.30;;;12.00;72.30;;;;;;4179777;28;20172;-71
2022/06/17 03:45:17;;;;;;;3.93;2.40;;;12.00;71.90;;;;;;4179577;28;20210;-71
2022/06/17 03:47:28;;;;;;;4.03;2.73;;;12.10;72.50;;;;;;4179627;28;20188;-71
2022/06/17 03:49:43;;;;;;;2.60;2.40;;;12.10;72.20;;;;;;4179700;28;20176;-71
2022/06/17 03:51:44;;;;;;;2.40;2.20;;;12.20;71.60;;;;;;4179640;28;20215;-71
2022/06/17 03:53:46;;;;;;;2.47;2.10;;;12.20;71.00;;;;;;4179509;28;20679;-71
2022/06/17 03:55:46;;;;;;;2.63;2.43;;;12.30;71.20;;;;;;4178737;28;20192;-71
2022/06/17 03:57:55;;;;;;;2.37;2.17;;;12.30;70.70;;;;;;4179347;28;20233;-71
2022/06/17 03:59:57;;;;;;;2.60;2.40;;;12.50;70.20;;;;;;4179494;28;20820;-71
2022/06/17 04:02:10;;;;;;;3.73;2.17;;;12.50;70.40;;;;;;4179406;28;20893;-71
2022/06/17 04:04:18;;;;;;;3.80;2.50;;;12.50;71.20;;;;;;4179244;28;20215;-70
2022/06/17 04:06:29;;;;;;;2.47;2.27;;;12.40;71.10;;;;;;4178473;28;20290;-71
2022/06/17 04:08:30;;;;;;;3.53;2.47;;;12.50;70.60;;;;;;4179518;28;20217;-70
2022/06/17 04:10:31;;;;;;;2.83;2.37;;;12.50;71.00;;;;;;4179481;28;20226;-70
2022/06/17 04:12:32;;;;;;;2.83;2.63;;;12.50;71.00;;;;;;4179635;28;20647;-70
2022/06/17 04:15:07;;;;;;;2.57;2.40;;;12.50;71.00;;;;;;4179294;28;20275;-72
2022/06/17 04:17:13;;;;;;;4.53;2.73;;;12.50;70.90;;;;;;4179209;28;20552;-72
2022/06/17 04:19:20;;;;;;;2.43;2.23;;;12.50;71.50;;;;;;4179360;28;20249;-72
2022/06/17 04:21:20;;;;;;;3.00;2.60;;;12.50;71.40;;;;;;4179253;28;20267;-71
2022/06/17 04:23:31;;;;;;;5.70;2.50;;;12.60;70.80;;;;;;4179206;28;20230;-71
2022/06/17 04:25:59;;;;;;;3.00;2.20;;;12.60;70.90;;;;;;4177375;28;20733;-72
2022/06/17 04:28:06;;;;;;;2.33;2.13;;;12.70;71.00;;;;;;4175485;28;20258;-72
2022/06/17 04:30:22;;;;;;;3.20;2.00;;;12.60;70.90;;;;;;4177720;28;20229;-71
2022/06/17 04:32:28;;;;;;;2.53;2.33;;;12.80;70.40;;;;;;4162657;28;20674;-72
2022/06/17 04:34:28;;;;;;;2.57;2.37;;;12.80;70.10;;;;;;4161229;28;20208;-72
2022/06/17 04:36:39;;;;;;;4.27;2.20;;;12.80;70.40;;;;;;4161957;28;20685;-72
2022/06/17 04:38:53;;;;;;;4.27;2.50;;;12.80;70.60;;;;;;4162873;28;20180;-72
2022/06/17 04:40:58;;;;;;;4.53;2.60;;;12.90;70.00;;;;;;4162658;28;20214;-72
2022/06/17 04:43:00;;;;;;;3.60;2.27;;;12.90;69.60;;;;;;4162961;28;20169;-71
2022/06/17 04:45:01;;;;;;;2.33;2.13;;;12.90;68.90;;;;;;4162759;28;20618;-72
2022/06/17 04:47:14;;;;;;;2.90;2.33;;;13.00;68.10;;;;;;4162570;28;20176;-72
2022/06/17 04:49:19;;;;;;;2.30;2.10;;;13.10;67.30;;;;;;4162302;28;20176;-72
2022/06/17 04:51:20;;;;;;;2.50;2.20;;;13.20;66.10;;;;;;4162697;28;20203;-72
2022/06/17 04:53:21;;;;;;;3.17;2.00;;;13.30;65.60;;;;;;4162684;28;20236;-72
2022/06/17 04:55:28;;;;;;;2.70;2.13;;;13.30;66.20;;;;;;4162352;28;20212;-71
2022/06/17 04:57:30;;;;;;;3.10;2.10;;;13.30;66.90;;;;;;4162665;28;20177;-72
2022/06/17 04:59:34;;;;;;;3.10;2.17;;;13.30;66.70;;;;;;4162528;28;20546;-72
2022/06/17 05:01:35;;;;;;;3.27;2.40;;;13.40;67.00;;;;;;4162766;28;20550;-72
2022/06/17 05:03:36;;;;;;;5.27;2.67;;;13.50;65.50;;;;;;4162642;28;20177;-72
2022/06/17 05:05:41;;;;;;;4.43;2.43;;;13.50;65.70;;;;;;4162280;28;20322;-71
2022/06/17 05:07:45;;;;;;;4.63;3.00;;;13.60;65.20;;;;;;4162739;28;20173;-71
2022/06/17 05:09:56;;;;;;;6.23;2.80;;;13.70;64.00;;;;;;4162477;28;20188;-70
2022/06/17 05:12:07;;;;;;;7.33;3.43;;;13.70;64.70;;;;;;4163059;28;20173;-71
2022/06/17 05:14:10;;;;;;;2.53;2.33;;;13.80;64.40;;;;;;4177703;28;20246;-71
2022/06/17 05:16:14;;;;;;;6.43;3.70;;;13.80;63.80;;;;;;4178641;28;20226;-71
2022/06/17 05:18:15;;;;;;;3.10;2.57;;;13.90;64.60;;;;;;4178930;28;20251;-71
2022/06/17 05:20:20;;;;;;;4.07;2.40;;;13.80;64.50;;;;;;4178994;28;20199;-71
2022/06/17 05:22:35;;;;;;;2.33;2.10;;;14.00;64.20;;;;;;4179186;28;20183;-71
2022/06/17 05:24:35;;;;;;;2.73;2.30;;;14.00;64.80;;;;;;4178337;28;20173;-70
2022/06/17 05:26:36;;;;;;;2.43;2.23;;;14.10;65.30;;;;;;4177683;28;20183;-70
2022/06/17 05:28:37;;;;;;;2.23;2.03;;;14.10;65.10;;;;;;4178330;28;20230;-70
2022/06/17 05:30:41;;;;;;;2.43;2.20;;;14.20;64.90;;;;;;4178211;28;20176;-70
2022/06/17 05:32:49;;;;;;;3.17;2.50;;;14.30;65.10;;;;;;4177959;28;20181;-70
2022/06/17 05:34:50;;;;;;;2.43;2.07;;;14.30;64.30;;;;;;4178205;28;20231;-70
2022/06/17 05:36:52;;;;;;;2.93;2.30;;;14.40;63.50;;;;;;4178052;28;20191;-70
2022/06/17 05:38:53;;;;;;;2.50;2.30;;;14.40;64.20;;;;;;4178359;28;20857;-70
2022/06/17 05:40:53;;;;;;;3.07;2.43;;;14.50;64.40;;;;;;4178106;28;20181;-70
2022/06/17 05:42:54;;;;;;;2.43;2.23;;;14.60;63.70;;;;;;4178227;28;20239;-70
2022/06/17 05:44:54;;;;;;;2.67;2.47;;;14.70;63.40;;;;;;4178237;28;20583;-71
2022/06/17 05:46:55;;;;;;;2.50;2.10;;;14.80;64.00;;;;;;4177644;28;20177;-71
2022/06/17 05:48:55;;;;;;;4.73;2.90;;;14.80;63.80;;;;;;4178192;28;20255;-70
2022/06/17 05:50:56;;;;;;;4.53;2.67;;;14.90;64.10;;;;;;4178148;28;20682;-70
2022/06/17 05:53:02;;;;;;;4.47;2.53;;;15.00;63.50;;;;;;4178348;28;20184;-71
2022/06/17 05:55:04;;;;;;;3.23;2.50;;;15.10;63.90;;;;;;4178007;28;20196;-71
2022/06/17 05:57:04;;;;;;;4.77;2.90;;;15.30;63.70;;;;;;4177541;28;20275;-71
2022/06/17 05:59:05;;;;;;;3.77;2.70;;;15.40;62.90;;;;;;4178136;28;20181;-71
2022/06/17 06:01:06;;;;;;;3.33;2.70;;;15.40;62.50;;;;;;4178668;28;20176;-72
2022/06/17 06:03:07;;;;;;;5.37;3.47;;;15.60;61.70;;;;;;4180994;28;20180;-71
2022/06/17 06:05:14;;;;;;;9.40;4.10;;;15.70;61.60;;;;;;4180518;28;20200;-71
2022/06/17 06:07:14;;;;;;;8.17;3.43;;;15.80;61.80;;;;;;4180557;28;20184;-71
2022/06/17 06:09:15;;;;;;;10.40;4.53;;;15.80;63.10;;;;;;4181158;28;20175;-71
2022/06/17 06:11:16;;;;;;;9.43;4.60;;;15.90;63.30;;;;;;4180986;28;20173;-71
2022/06/17 06:13:19;;;;;;;9.23;4.00;;;16.10;63.40;;;;;;4180959;28;20601;-71
2022/06/17 06:15:26;;;;;;;9.77;3.93;;;16.20;62.40;;;;;;4180516;28;20237;-71
2022/06/17 06:17:27;;;;;;;7.90;3.10;;;16.30;62.30;;;;;;4180522;28;20818;-71
2022/06/17 06:19:30;;;;;;;6.67;2.90;;;16.50;61.00;;;;;;4180380;28;20176;-71
2022/06/17 06:21:31;;;;;;;8.03;4.00;;;16.90;59.40;;;;;;4180481;28;20196;-71
2022/06/17 06:23:33;;;;;;;3.90;2.90;;;17.10;59.80;;;;;;4180631;28;20262;-70
2022/06/17 06:25:34;;;;;;;6.90;3.53;;;17.50;60.30;;;;;;4180060;28;20215;-71
2022/06/17 06:27:35;;;;;;;6.43;3.43;;;17.60;60.00;;;;;;4180641;28;20184;-70
2022/06/17 06:29:35;;;;;;;11.47;5.50;;;17.70;60.00;;;;;;4180561;28;20184;-71
2022/06/17 06:31:38;;;;;;;5.20;3.17;;;18.10;58.10;;;;;;4180474;28;20188;-71
2022/06/17 06:33:40;;;;;;;4.43;2.93;;;18.20;58.40;;;;;;4180334;28;20296;-70
2022/06/17 06:35:40;;;;;;;3.97;2.90;;;18.50;57.60;;;;;;4179857;28;20192;-71
2022/06/17 06:37:41;;;;;;;4.37;2.60;;;18.60;58.30;;;;;;4180622;28;20660;-71
2022/06/17 06:39:41;;;;;;;2.43;2.20;;;18.60;58.50;;;;;;4180382;28;20782;-71
2022/06/17 06:41:42;;;;;;;3.27;2.53;;;18.70;58.70;;;;;;4180419;28;20266;-71
2022/06/17 06:43:43;;;;;;;3.17;2.43;;;18.90;57.30;;;;;;4180355;28;20553;-71
2022/06/17 06:45:46;;;;;;;2.90;2.47;;;19.00;55.90;;;;;;4179811;28;20664;-70
2022/06/17 06:47:47;;;;;;;3.33;2.37;;;19.10;56.30;;;;;;4180398;28;20177;-71
2022/06/17 06:49:47;;;;;;;2.50;2.30;;;19.20;57.50;;;;;;4180342;28;20195;-71
2022/06/17 06:51:48;;;;;;;4.47;2.40;;;19.20;57.10;;;;;;4180506;28;20204;-70
2022/06/17 06:53:48;;;;;;;3.60;1.90;;;19.10;55.60;;;;;;4180232;28;20216;-70
2022/06/17 06:55:49;;;;;;;2.47;1.80;;;19.20;55.20;;;;;;4179601;28;21115;-68
2022/06/17 06:57:54;;;;;;;3.57;1.60;;;19.30;52.40;;;;;;4180380;28;20211;-71
2022/06/17 06:59:59;;;;;;;2.20;2.00;;;19.30;55.40;;;;;;4180290;28;20239;-70
2022/06/17 07:02:00;;;;;;;2.00;1.83;;;19.30;52.70;;;;;;4180190;28;20200;-70
2022/06/17 07:04:00;;;;;;;1.90;1.70;;;19.40;54.00;;;;;;4180048;28;20180;-70
2022/06/17 07:06:03;;;;;;;2.20;1.80;;;19.40;53.70;;;;;;4179144;28;20227;-71
2022/06/17 07:08:06;;;;;;;1.80;1.70;;;19.50;50.60;;;;;;4179970;28;20176;-70
2022/06/17 07:10:08;;;;;;;2.50;2.10;;;19.50;52.80;;;;;;4179966;28;20287;-71
2022/06/17 07:12:09;;;;;;;1.60;1.50;;;19.50;53.60;;;;;;4179180;28;20189;-71
2022/06/17 07:14:10;;;;;;;3.00;1.97;;;19.70;48.80;;;;;;4178088;28;20290;-71
2022/06/17 07:16:12;;;;;;;2.30;2.10;;;19.90;50.70;;;;;;4164256;28;20239;-71
2022/06/17 07:18:25;;;;;;;2.83;1.60;;;20.10;51.00;;;;;;4163371;28;20185;-70
2022/06/17 07:20:28;;;;;;;4.47;1.90;;;20.20;45.90;;;;;;4163264;28;20671;-70
2022/06/17 07:22:28;;;;;;;5.10;2.00;;;20.30;44.40;;;;;;4163276;28;20177;-70
2022/06/17 07:24:29;;;;;;;3.93;2.87;;;20.50;47.00;;;;;;4163373;28;20192;-71
2022/06/17 07:26:29;;;;;;;2.07;1.90;;;20.60;43.40;;;;;;4162449;28;20231;-71
2022/06/17 07:28:30;;;;;;;2.10;1.90;;;20.80;43.50;;;;;;4173465;28;20176;-71
2022/06/17 07:30:32;;;;;;;2.20;1.67;;;20.90;42.30;;;;;;4179594;28;20262;-71
2022/06/17 07:32:33;;;;;;;2.30;2.10;;;20.80;45.70;;;;;;4178259;28;20184;-70
2022/06/17 07:34:33;;;;;;;1.70;1.60;;;21.00;44.40;;;;;;4179392;28;20704;-71
2022/06/17 07:41:14;;;;;;;5.17;3.90;;;21.20;44.10;;;;;;4179525;28;20271;-71
2022/06/17 07:43:18;;;;;;;4.00;2.00;;;21.30;41.90;;;;;;4178082;28;20670;-70
2022/06/17 07:45:19;;;;;;;2.40;1.53;;;21.50;41.00;;;;;;4179504;28;20277;-71
2022/06/17 07:47:22;;;;;;;2.30;1.63;;;21.60;43.40;;;;;;4179452;28;20213;-70
2022/06/17 07:49:22;;;;;;;2.20;1.90;;;21.80;39.20;;;;;;4179384;28;20204;-71
2022/06/17 07:51:23;;;;;;;2.50;2.30;;;22.00;40.60;;;;;;4179254;28;20176;-71
2022/06/17 07:53:24;;;;;;;3.93;1.90;;;22.10;38.80;;;;;;4179350;28;20191;-71
2022/06/17 07:55:25;;;;;;;5.53;2.17;;;22.20;38.80;;;;;;4178687;28;20222;-71
2022/06/17 07:57:25;;;;;;;4.27;1.80;;;22.30;37.50;;;;;;4179169;28;20218;-71
2022/06/17 07:59:26;;;;;;;4.53;1.83;;;22.40;37.50;;;;;;4179446;28;20658;-70
2022/06/17 08:01:26;;;;;;;2.13;1.80;;;22.40;36.40;;;;;;4179343;28;20994;-71
2022/06/17 08:03:27;;;;;;;1.83;1.73;;;22.30;36.30;;;;;;4179469;28;20216;-71
2022/06/17 08:05:28;;;;;;;2.40;1.87;;;22.30;38.70;;;;;;4178324;28;20200;-71
2022/06/17 08:07:28;;;;;;;2.20;2.00;;;22.50;36.70;;;;;;4179042;28;20180;-71
2022/06/17 08:09:29;;;;;;;3.33;2.20;;;22.40;36.10;;;;;;4179105;28;20187;-71
2022/06/17 08:11:30;;;;;;;2.70;1.83;;;22.40;35.30;;;;;;4179252;28;20183;-70
2022/06/17 08:13:30;;;;;;;5.27;4.43;;;22.60;35.10;;;;;;4179195;28;20745;-71
2022/06/17 08:15:31;;;;;;;3.37;2.70;;;22.70;35.90;;;;;;4180450;28;20200;-71
2022/06/17 08:17:32;;;;;;;99.37;94.07;;;22.60;34.80;;;;;;4181151;28;20884;-70
2022/06/17 08:19:33;;;;;;;3.13;2.43;;;22.60;33.90;;;;;;4180975;28;20184;-70
2022/06/17 08:21:35;;;;;;;5.60;2.80;;;22.40;37.50;;;;;;4180846;28;20184;-70
2022/06/17 08:23:35;;;;;;;2.70;2.00;;;22.50;35.60;;;;;;4179968;28;20176;-70
2022/06/17 08:25:37;;;;;;;5.57;5.07;;;22.50;34.10;;;;;;4178932;28;20738;-70
2022/06/17 08:27:45;;;;;;;2.40;2.20;;;22.60;34.40;;;;;;4181040;28;20180;-70
2022/06/17 08:29:46;;;;;;;2.13;1.87;;;22.90;34.10;;;;;;4181176;28;20176;-69
2022/06/17 08:31:46;;;;;;;4.27;3.67;;;23.10;34.40;;;;;;4181683;28;20234;-71
2022/06/17 08:33:47;;;;;;;4.10;3.73;;;23.00;33.50;;;;;;4180281;28;20204;-71
2022/06/17 08:35:48;;;;;;;5.03;2.23;;;23.10;33.40;;;;;;4178615;28;20573;-71
2022/06/17 08:37:53;;;;;;;2.37;1.90;;;23.30;36.00;;;;;;4179522;28;20807;-71
2022/06/17 08:39:55;;;;;;;2.80;2.60;;;23.20;32.60;;;;;;4179318;28;20208;-71
2022/06/17 08:42:05;;;;;;;19.43;18.27;;;23.40;32.80;;;;;;4180465;28;20644;-71
2022/06/17 08:44:15;;;;;;;3.80;2.80;;;23.50;32.20;;;;;;4180312;28;20176;-71
2022/06/17 08:46:34;;;;;;;3.63;2.13;;;23.30;34.10;;;;;;4180368;28;20195;-72
2022/06/17 08:48:38;;;;;;;2.50;2.40;;;23.70;32.70;;;;;;4181256;28;20233;-71
2022/06/17 08:51:06;;;;;;;5.20;2.70;;;23.70;31.40;;;;;;4180702;28;20191;-70
2022/06/17 08:53:18;;;;;;;22.27;20.83;;;23.70;32.30;;;;;;4179133;28;20560;-70
2022/06/17 08:55:32;;;;;;;2.80;2.50;;;23.70;31.60;;;;;;4181158;28;20213;-70
2022/06/17 08:57:41;;;;;;;55.83;52.53;;;23.80;31.40;;;;;;4180475;28;20643;-69
2022/06/17 08:59:47;;;;;;;3.30;2.40;;;23.90;34.30;;;;;;4177870;28;20183;-70
2022/06/17 09:02:04;;;;;;;4.40;2.47;;;23.80;31.10;;;;;;4179261;28;20255;-70
2022/06/17 09:04:19;;;;;;;3.10;2.43;;;24.00;31.20;;;;;;4177388;28;20262;-73
2022/06/17 09:06:38;;;;;;;6.03;5.63;;;24.00;32.00;;;;;;4186158;28;20195;-72
2022/06/17 09:08:51;;;;;;;64.90;61.17;;;24.10;32.50;;;;;;4185535;28;20172;-74
2022/06/17 09:11:14;;;;;;;54.03;51.27;;;24.30;31.20;;;;;;4184318;28;20171;-73
2022/06/17 09:13:32;;;;;;;2.33;2.10;;;23.90;30.40;;;;;;4184483;28;20188;-71
2022/06/17 09:15:36;;;;;;;2.97;2.13;;;24.20;30.50;;;;;;4196132;28;20286;-74
2022/06/17 09:17:51;;;;;;;2.80;2.43;;;24.70;31.90;;;;;;4180186;28;20647;-74
2022/06/17 09:19:58;;;;;;;42.20;40.00;;;24.60;30.70;;;;;;4168005;28;20281;-73
2022/06/17 09:22:15;;;;;;;11.07;10.27;;;24.60;32.80;;;;;;4194945;28;20199;-73
2022/06/17 09:24:27;;;;;;;5.50;5.10;;;24.40;30.70;;;;;;4186104;28;20708;-70
2022/06/17 09:26:31;;;;;;;5.67;5.17;;;24.60;30.40;;;;;;4190053;28;20620;-72
2022/06/17 09:28:38;;;;;;;2.90;2.50;;;24.40;29.90;;;;;;4188444;28;20176;-73
2022/06/17 09:30:46;;;;;;;5.40;4.90;;;24.40;32.20;;;;;;4189371;28;20183;-71
2022/06/17 09:32:57;;;;;;;4.37;4.07;;;24.40;28.70;;;;;;4184680;28;20172;-73
2022/06/17 09:35:24;;;;;;;4.17;3.87;;;24.40;28.90;;;;;;4180794;28;20215;-73
2022/06/17 09:37:33;;;;;;;3.63;2.47;;;24.50;28.80;;;;;;4189514;28;20215;-71
2022/06/17 09:39:51;;;;;;;1.73;1.57;;;25.00;29.50;;;;;;4184573;28;20173;-73
2022/06/17 09:42:05;;;;;;;2.20;2.00;;;25.20;27.50;;;;;;4170507;28;20656;-72
2022/06/17 09:44:16;;;;;;;9.17;8.67;;;25.20;26.00;;;;;;4196775;28;20512;-74
2022/06/17 09:46:25;;;;;;;8.77;8.27;;;25.00;24.60;;;;;;4188298;28;20609;-72
2022/06/17 09:48:34;;;;;;;2.83;2.70;;;25.00;23.10;;;;;;4193609;28;20725;-72
2022/06/17 09:50:50;;;;;;;2.60;2.33;;;25.20;25.80;;;;;;4191417;28;20179;-72
2022/06/17 09:53:13;;;;;;;4.50;4.17;;;25.50;25.20;;;;;;4190455;28;20180;-73
2022/06/17 09:55:23;;;;;;;2.87;2.67;;;25.40;24.90;;;;;;4197004;28;20708;-74
2022/06/17 09:57:31;;;;;;;2.40;2.20;;;25.60;26.30;;;;;;4185939;28;20179;-73
2022/06/17 09:59:46;;;;;;;3.73;2.13;;;25.50;26.70;;;;;;4197607;28;20688;-74
2022/06/17 10:01:47;;;;;;;3.73;3.43;;;25.70;27.80;;;;;;4169163;28;20731;-74
2022/06/17 10:03:48;;;;;;;2.93;2.50;;;25.80;27.00;;;;;;4197681;28;20215;-74
2022/06/17 10:06:07;;;;;;;4.07;3.57;;;25.80;27.10;;;;;;4184449;28;20208;-74
2022/06/17 10:08:32;;;;;;;5.00;4.70;;;26.20;27.90;;;;;;4200528;28;20286;-74
2022/06/17 10:10:44;;;;;;;4.03;3.17;;;25.90;26.40;;;;;;4193010;28;20177;-74
2022/06/17 10:12:50;;;;;;;4.40;2.27;;;25.90;26.80;;;;;;4192459;28;20229;-73
2022/06/17 10:15:19;;;;;;;10.17;9.47;;;26.10;26.20;;;;;;4187045;28;20671;-73
2022/06/17 10:20:38;;;;;;;6.10;5.63;;;26.40;26.50;;;;;;4174182;28;20203;-72
2022/06/17 10:22:48;;;;;;;3.07;1.90;;;26.90;25.80;;;;;;4187141;28;20675;-72
2022/06/17 10:25:29;;;;;;;4.77;4.53;;;27.00;25.60;;;;;;4188464;28;20191;-74
2022/06/17 10:27:45;;;;;;;50.07;47.23;;;27.30;25.60;;;;;;4181367;28;20180;-75
2022/06/17 10:29:58;;;;;;;2.53;2.33;;;27.20;24.00;;;;;;4165383;28;20187;-76
2022/06/17 10:31:59;;;;;;;3.47;3.13;;;27.00;25.60;;;;;;4193973;28;20233;-74
2022/06/17 10:34:22;;;;;;;4.30;3.70;;;27.80;24.60;;;;;;4182768;28;20223;-76
2022/06/17 10:36:22;;;;;;;2.30;1.97;;;28.30;24.00;;;;;;4189951;28;20192;-74
2022/06/17 10:38:31;;;;;;;3.40;2.20;;;28.40;23.40;;;;;;4186140;28;20168;-74
2022/06/17 10:40:36;;;;;;;2.88;2.67;;;28.90;23.50;;;;;;4189291;28;20524;-77
2022/06/17 10:42:37;;;;;;;15.77;14.90;;;28.40;23.70;;;;;;4187954;28;20597;-75
2022/06/17 10:44:37;;;;;;;2.80;2.15;;;28.90;23.80;;;;;;4188390;28;20176;-74
2022/06/17 10:46:44;;;;;;;6.43;3.97;;;29.20;22.90;;;;;;4186494;28;20265;-75
2022/06/17 10:49:00;;;;;;;4.70;4.40;;;29.30;22.40;;;;;;4187505;28;20179;-75
2022/06/17 10:51:02;;;;;;;2.00;1.90;;;29.70;21.90;;;;;;4189608;28;20175;-77
2022/06/17 10:53:12;;;;;;;4.80;4.50;;;30.30;22.00;;;;;;4184769;28;20191;-72
2022/06/17 10:55:24;;;;;;;2.22;2.05;;;28.90;22.50;;;;;;4192570;28;20682;-71
2022/06/17 10:57:30;;;;;;;3.25;3.05;;;28.40;23.70;;;;;;4181813;28;20190;-71
2022/06/17 10:59:41;;;;;;;7.97;7.32;;;29.60;23.00;;;;;;4195157;28;20560;-76
2022/06/17 11:01:53;;;;;;;3.90;3.65;;;28.60;22.80;;;;;;4163940;28;20172;-71
2022/06/17 11:04:12;;;;;;;12.25;11.40;;;28.80;23.20;;;;;;4179957;28;20180;-73